Ana Sayfa
METAR-TAF:

METAR-TAF

Havaalanları :

Lee's Summit Municipal Airport

Lee's Summit, Missouri, Amerika Birleşik Devletleri

Enlem: 38-57-35N, Boylam: 094-22-18W, yükseklik: 306 m

Güncel hava durumu gözlemi

Rapor saat 10:53 UTC de 1 saat ve 13 dakika önce yapıldı.
Rüzgar doğu/kuzeydoğudan 4 kt
Sıcaklık 13°C
Nem 94%
Basınç 1012 hPa
Görüş mesafesi: 16.1 km
Açık gökyüzü

METAR: KLXT 231053Z AUTO 07004KT 10SM CLR 13/12 A2988 RMK AO2 SLP114 T01330117

Saat: 07:06 (12:06 UTC)


TAF: eksik

4.000'den fazla havaalanı için hava durumu gözlemleri ve tahminleri (METAR ve TAF raporları).

Kullanılabilir istasyonlar harita üzerinde sarı ve kırmızı noktalarla gösterilir.

İstasyonun adını görmek için fareyi noktanın üzerinde gezdirin.

Sonrasında hava gözlem ve tahminlerini görmek için tıklayın.

Haritayı değiştirmek için: yaklaştırmak için siyah artı işaretli yeşil düğmeye ve uzaklaştırmak için de eksi işaretli düğmeye hızla tıklayın; bitişik haritalar için yeşil okları kullanın.


METAR-TAF: